createdAt,value
2022-09-01T00:00:03.915Z,557.0870
2022-09-01T00:00:15.240Z,558.9550
2022-09-01T00:00:26.782Z,555.6940
2022-09-01T00:00:37.976Z,558.9550
2022-09-01T00:00:49.178Z,560.3640
2022-09-01T00:01:00.304Z,559.4240
2022-09-01T00:01:11.440Z,563.2040
2022-09-01T00:01:22.572Z,560.8350
2022-09-01T00:01:33.919Z,562.2540
2022-09-01T00:01:45.047Z,562.2540
2022-09-01T00:01:56.176Z,563.2040
2022-09-01T00:02:07.626Z,563.6800
2022-09-01T00:02:18.813Z,563.6800
2022-09-01T00:02:30.111Z,564.6340
2022-09-01T00:02:41.324Z,564.1570
2022-09-01T00:02:52.461Z,565.5920
2022-09-01T00:03:03.613Z,566.0720
2022-09-01T00:03:14.773Z,564.6340
2022-09-01T00:03:25.899Z,565.1130
2022-09-01T00:03:37.995Z,565.1130
2022-09-01T00:03:49.125Z,565.5920
2022-09-01T00:04:00.366Z,564.6340
2022-09-01T00:04:11.726Z,565.1130
2022-09-01T00:04:22.887Z,566.0720
2022-09-01T00:04:34.067Z,568.0010
2022-09-01T00:04:45.266Z,567.0350
2022-09-01T00:04:56.367Z,567.0350
2022-09-01T00:05:07.592Z,567.0350
2022-09-01T00:05:18.730Z,566.0720
2022-09-01T00:05:29.862Z,568.0010
2022-09-01T00:05:41.010Z,567.0350
2022-09-01T00:05:52.137Z,568.0010
2022-09-01T00:06:04.377Z,567.0350
2022-09-01T00:06:15.498Z,566.5530
2022-09-01T00:06:26.794Z,568.9700
2022-09-01T00:06:37.977Z,567.5180
2022-09-01T00:06:49.187Z,569.9430
2022-09-01T00:07:00.375Z,568.0010
2022-09-01T00:07:11.599Z,567.5180
2022-09-01T00:07:22.777Z,568.0010
2022-09-01T00:07:33.980Z,566.5530
2022-09-01T00:07:45.173Z,568.0010
2022-09-01T00:07:56.302Z,568.0010
2022-09-01T00:08:07.435Z,568.0010
2022-09-01T00:08:18.873Z,568.4850
2022-09-01T00:08:30.470Z,568.9700
2022-09-01T00:08:41.583Z,568.0010
2022-09-01T00:08:52.714Z,569.9430
2022-09-01T00:09:03.899Z,567.5180
2022-09-01T00:09:15.083Z,568.0010
2022-09-01T00:09:26.201Z,570.9190
2022-09-01T00:09:37.323Z,568.0010
2022-09-01T00:09:48.456Z,568.9700
2022-09-01T00:09:59.591Z,568.0010
2022-09-01T00:10:10.776Z,570.9190
2022-09-01T00:10:21.977Z,569.9430
2022-09-01T00:10:33.339Z,571.8980
2022-09-01T00:10:44.474Z,568.9700
2022-09-01T00:10:55.599Z,568.9700
2022-09-01T00:11:06.777Z,569.4560
2022-09-01T00:11:17.975Z,570.4300
2022-09-01T00:11:29.176Z,570.9190
2022-09-01T00:11:40.376Z,568.9700
2022-09-01T00:11:51.569Z,568.9700
2022-09-01T00:12:02.701Z,569.4560
2022-09-01T00:12:13.848Z,569.9430
2022-09-01T00:12:24.981Z,569.9430
2022-09-01T00:12:36.249Z,571.8980
2022-09-01T00:12:47.374Z,569.4560
2022-09-01T00:12:58.507Z,568.9700
2022-09-01T00:13:09.631Z,568.9700
2022-09-01T00:13:20.755Z,569.9430
2022-09-01T00:13:31.879Z,568.9700
2022-09-01T00:13:43.015Z,572.8810
2022-09-01T00:13:54.138Z,571.8980
2022-09-01T00:14:05.336Z,571.4080
2022-09-01T00:14:30.192Z,565.5920
2022-09-01T00:14:41.604Z,558.4870
2022-09-01T00:14:53.169Z,555.2320
2022-09-01T00:15:04.307Z,560.3640
2022-09-01T00:15:15.418Z,559.4240
2022-09-01T00:15:26.682Z,562.2540
2022-09-01T00:15:37.854Z,563.2040
2022-09-01T00:15:49.140Z,563.2040
2022-09-01T00:16:00.374Z,566.5530
2022-09-01T00:16:11.606Z,566.5530
2022-09-01T00:16:22.727Z,567.0350
2022-09-01T00:16:33.827Z,565.1130
2022-09-01T00:16:45.025Z,564.6340
2022-09-01T00:16:57.861Z,564.1570
2022-09-01T00:17:09.008Z,566.0720
2022-09-01T00:17:20.168Z,568.0010
2022-09-01T00:17:31.285Z,566.5530
2022-09-01T00:17:42.411Z,566.5530
2022-09-01T00:17:54.356Z,567.0350
2022-09-01T00:18:05.456Z,568.0010
2022-09-01T00:18:16.648Z,568.0010
2022-09-01T00:18:27.755Z,570.4300
2022-09-01T00:18:38.932Z,570.9190
2022-09-01T00:18:50.053Z,569.9430
2022-09-01T00:19:01.325Z,569.4560
2022-09-01T00:19:12.458Z,570.9190
2022-09-01T00:19:24.677Z,568.9700
2022-09-01T00:19:35.806Z,573.3730
2022-09-01T00:19:46.936Z,569.9430
2022-09-01T00:19:58.098Z,573.3730
2022-09-01T00:20:09.225Z,570.9190
2022-09-01T00:20:20.841Z,571.8980
2022-09-01T00:20:32.130Z,574.3610
2022-09-01T00:20:43.254Z,573.8670
2022-09-01T00:20:54.401Z,573.8670
2022-09-01T00:21:05.664Z,573.8670
2022-09-01T00:21:16.795Z,572.8810
2022-09-01T00:21:27.935Z,573.8670
2022-09-01T00:21:39.100Z,572.8810
2022-09-01T00:21:50.226Z,572.8810
2022-09-01T00:22:01.364Z,573.8670
2022-09-01T00:22:12.468Z,573.8670
2022-09-01T00:22:23.565Z,576.8450
2022-09-01T00:22:34.702Z,576.8450
2022-09-01T00:22:45.839Z,575.8490
2022-09-01T00:22:56.964Z,576.3470
2022-09-01T00:23:08.084Z,577.8450
2022-09-01T00:23:19.407Z,579.3510
2022-09-01T00:23:30.535Z,578.3460
2022-09-01T00:23:41.667Z,579.3510
2022-09-01T00:23:52.856Z,578.8480
2022-09-01T00:24:04.056Z,576.8450
2022-09-01T00:24:15.255Z,579.8550
2022-09-01T00:24:26.503Z,577.8450
2022-09-01T00:24:37.660Z,579.3510
2022-09-01T00:24:48.793Z,580.8650
2022-09-01T00:24:59.916Z,577.3450
2022-09-01T00:25:11.049Z,578.3460
2022-09-01T00:25:22.326Z,581.3720
2022-09-01T00:25:33.463Z,579.8550
2022-09-01T00:25:44.592Z,578.3460
2022-09-01T00:25:55.715Z,579.3510
2022-09-01T00:26:06.843Z,581.8790
2022-09-01T00:26:17.986Z,580.8650
2022-09-01T00:26:29.112Z,579.8550
2022-09-01T00:26:40.259Z,578.8480
2022-09-01T00:26:51.412Z,579.3510
2022-09-01T00:27:02.539Z,582.8960
2022-09-01T00:27:13.657Z,578.8480
2022-09-01T00:27:27.889Z,578.8480
2022-09-01T00:27:41.984Z,572.8810
2022-09-01T00:27:53.167Z,571.8980
2022-09-01T00:28:04.380Z,575.8490
2022-09-01T00:28:15.579Z,574.3610
2022-09-01T00:28:29.263Z,576.8450
2022-09-01T00:28:41.516Z,570.9190
2022-09-01T00:28:52.697Z,572.8810
2022-09-01T00:29:03.896Z,572.8810
2022-09-01T00:29:15.087Z,573.3730
2022-09-01T00:29:26.215Z,574.3610
2022-09-01T00:29:37.493Z,574.3610
2022-09-01T00:29:48.619Z,577.8450
2022-09-01T00:29:59.734Z,575.3520
2022-09-01T00:30:10.865Z,574.8560
2022-09-01T00:30:22.001Z,575.8490
2022-09-01T00:30:33.175Z,577.3450
2022-09-01T00:30:44.403Z,577.8450
2022-09-01T00:30:55.645Z,577.3450
2022-09-01T00:31:06.852Z,579.8550
2022-09-01T00:31:18.059Z,576.8450
2022-09-01T00:31:29.227Z,576.8450
2022-09-01T00:31:40.497Z,576.8450
2022-09-01T00:31:51.611Z,577.3450
2022-09-01T00:32:02.775Z,578.3460
2022-09-01T00:32:14.105Z,578.8480
2022-09-01T00:32:25.266Z,576.8450
2022-09-01T00:32:36.396Z,578.8480
2022-09-01T00:32:47.579Z,578.3460
2022-09-01T00:32:58.774Z,576.8450
2022-09-01T00:33:09.972Z,577.8450
2022-09-01T00:33:21.133Z,578.8480
2022-09-01T00:33:32.312Z,579.8550
2022-09-01T00:33:43.583Z,578.8480
2022-09-01T00:33:54.782Z,580.8650
2022-09-01T00:34:05.975Z,579.3510
2022-09-01T00:34:17.166Z,579.3510
2022-09-01T00:34:28.294Z,579.8550
2022-09-01T00:34:39.424Z,579.8550
2022-09-01T00:34:50.554Z,580.3600
2022-09-01T00:35:01.686Z,580.8650
2022-09-01T00:35:12.854Z,580.8650
2022-09-01T00:35:23.985Z,581.8790
2022-09-01T00:35:37.369Z,580.8650
2022-09-01T00:35:48.755Z,577.8450
2022-09-01T00:35:59.885Z,577.8450
2022-09-01T00:36:11.017Z,578.8480
2022-09-01T00:36:22.157Z,579.8550
2022-09-01T00:36:33.283Z,579.8550
2022-09-01T00:36:44.408Z,579.8550
2022-09-01T00:36:55.579Z,580.3600
2022-09-01T00:37:06.779Z,579.8550
2022-09-01T00:37:17.991Z,581.3720
2022-09-01T00:37:29.207Z,581.3720
2022-09-01T00:37:40.374Z,580.8650
2022-09-01T00:37:51.715Z,582.8960
2022-09-01T00:38:02.845Z,581.3720
2022-09-01T00:38:13.976Z,582.8960
2022-09-01T00:38:25.172Z,582.3870
2022-09-01T00:38:36.295Z,583.4060
2022-09-01T00:38:47.418Z,584.9410
2022-09-01T00:38:58.569Z,584.4290
2022-09-01T00:39:09.700Z,583.9170
2022-09-01T00:39:21.574Z,583.9170
2022-09-01T00:39:32.700Z,585.9690
2022-09-01T00:39:43.897Z,582.8960
2022-09-01T00:39:55.245Z,587.0010
2022-09-01T00:40:06.465Z,585.9690
2022-09-01T00:40:17.696Z,585.9690
2022-09-01T00:40:28.890Z,588.5550
2022-09-01T00:40:40.001Z,589.0750
2022-09-01T00:40:51.181Z,589.0750
2022-09-01T00:41:02.331Z,587.0010
2022-09-01T00:41:13.502Z,591.1640
2022-09-01T00:41:24.700Z,588.5550
2022-09-01T00:41:35.894Z,588.0360
2022-09-01T00:41:47.030Z,589.0750
2022-09-01T00:41:58.295Z,587.5180
2022-09-01T00:42:09.498Z,589.5960
2022-09-01T00:42:20.627Z,591.6890
2022-09-01T00:42:31.886Z,589.5960
2022-09-01T00:42:43.013Z,590.1180
2022-09-01T00:42:54.130Z,591.1640
2022-09-01T00:43:05.259Z,591.1640
2022-09-01T00:43:16.395Z,590.6410
2022-09-01T00:43:27.575Z,591.6890
2022-09-01T00:43:38.707Z,590.6410
2022-09-01T00:43:49.844Z,593.2680
2022-09-01T00:44:01.116Z,590.1180
2022-09-01T00:44:12.252Z,592.7410
2022-09-01T00:44:23.622Z,591.6890
2022-09-01T00:44:36.058Z,591.1640
2022-09-01T00:44:47.257Z,592.2140
2022-09-01T00:44:58.365Z,590.6410
2022-09-01T00:45:09.495Z,589.5960
2022-09-01T00:45:21.255Z,589.5960
2022-09-01T00:45:34.392Z,589.0750
2022-09-01T00:45:45.545Z,589.0750
2022-09-01T00:45:56.804Z,589.0750
2022-09-01T00:46:08.327Z,589.0750
2022-09-01T00:46:21.498Z,589.5960
2022-09-01T00:46:34.011Z,588.0360
2022-09-01T00:46:51.007Z,583.4060
2022-09-01T00:47:04.667Z,577.8450
2022-09-01T00:47:16.600Z,578.8480
2022-09-01T00:47:28.534Z,576.8450
2022-09-01T00:47:39.684Z,579.8550
2022-09-01T00:47:50.858Z,582.3870
2022-09-01T00:48:01.966Z,580.8650
2022-09-01T00:48:15.381Z,581.8790
2022-09-01T00:48:26.622Z,580.8650
2022-09-01T00:48:37.757Z,583.4060
2022-09-01T00:48:49.299Z,583.4060
2022-09-01T00:49:00.894Z,583.9170
2022-09-01T00:49:12.017Z,584.9410
2022-09-01T00:49:23.158Z,584.4290
2022-09-01T00:49:35.228Z,583.9170
2022-09-01T00:49:46.675Z,583.9170
2022-09-01T00:49:57.806Z,585.9690
2022-09-01T00:50:08.951Z,587.0010
2022-09-01T00:50:20.067Z,585.9690
2022-09-01T00:50:31.405Z,588.0360
2022-09-01T00:50:42.537Z,588.0360
2022-09-01T00:50:54.699Z,587.0010
2022-09-01T00:51:05.844Z,586.4850
2022-09-01T00:51:17.013Z,588.0360
2022-09-01T00:51:28.150Z,588.5550
2022-09-01T00:51:39.271Z,587.5180
2022-09-01T00:51:50.418Z,589.0750
2022-09-01T00:52:01.544Z,589.0750
2022-09-01T00:52:12.694Z,588.5550
2022-09-01T00:52:23.894Z,589.0750
2022-09-01T00:52:35.257Z,589.5960
2022-09-01T00:52:46.394Z,589.0750
2022-09-01T00:52:57.520Z,589.5960
2022-09-01T00:53:08.699Z,590.1180
2022-09-01T00:53:19.840Z,590.1180
2022-09-01T00:53:30.985Z,592.2140
2022-09-01T00:53:42.106Z,591.1640
2022-09-01T00:53:53.237Z,593.2680
2022-09-01T00:54:04.367Z,592.7410
2022-09-01T00:54:15.487Z,593.2680
2022-09-01T00:54:26.616Z,593.2680
2022-09-01T00:54:37.903Z,594.3250
2022-09-01T00:54:49.023Z,595.3870
2022-09-01T00:55:00.187Z,595.3870
2022-09-01T00:55:11.283Z,594.8560
2022-09-01T00:55:22.457Z,595.9190
2022-09-01T00:55:33.587Z,595.3870
2022-09-01T00:55:44.718Z,596.4520
2022-09-01T00:55:55.847Z,597.5210
2022-09-01T00:56:06.992Z,596.4520
2022-09-01T00:56:18.129Z,594.3250
2022-09-01T00:56:29.236Z,595.9190
2022-09-01T00:56:40.514Z,597.5210
2022-09-01T00:56:57.805Z,591.1640
2022-09-01T00:57:09.447Z,588.0360
2022-09-01T00:57:20.582Z,592.2140
2022-09-01T00:57:31.736Z,594.3250
2022-09-01T00:57:42.934Z,592.2140
2022-09-01T00:57:54.086Z,592.2140
2022-09-01T00:58:05.229Z,593.2680
2022-09-01T00:58:19.595Z,596.4520
2022-09-01T00:58:31.165Z,590.1180
2022-09-01T00:58:42.287Z,591.1640
2022-09-01T00:58:53.563Z,593.2680
2022-09-01T00:59:04.686Z,593.2680
2022-09-01T00:59:15.808Z,592.2140
2022-09-01T00:59:26.963Z,594.3250
2022-09-01T00:59:38.864Z,595.3870
2022-09-01T00:59:50.001Z,594.8560
2022-09-01T01:00:01.174Z,595.3870
2022-09-01T01:00:12.305Z,595.3870
2022-09-01T01:00:23.436Z,595.9190
2022-09-01T01:00:34.562Z,597.5210
2022-09-01T01:00:45.688Z,596.4520
2022-09-01T01:00:57.004Z,598.5940
2022-09-01T01:01:08.198Z,599.1310
2022-09-01T01:01:19.440Z,598.5940
2022-09-01T01:01:30.647Z,600.2100
2022-09-01T01:01:41.900Z,596.4520
2022-09-01T01:01:53.066Z,597.5210
2022-09-01T01:02:04.295Z,598.0570
2022-09-01T01:02:15.442Z,598.0570
2022-09-01T01:02:26.658Z,598.0570
2022-09-01T01:02:37.866Z,600.2100
2022-09-01T01:02:48.993Z,599.1310
2022-09-01T01:03:00.230Z,601.8350
2022-09-01T01:03:11.515Z,599.6700
2022-09-01T01:03:22.644Z,599.1310
2022-09-01T01:03:33.785Z,601.2920
2022-09-01T01:03:44.909Z,601.8350
2022-09-01T01:03:56.046Z,602.3790
2022-09-01T01:04:07.186Z,604.5630
2022-09-01T01:04:18.317Z,600.7510
2022-09-01T01:04:29.454Z,603.4690
2022-09-01T01:04:40.574Z,601.2920
2022-09-01T01:04:51.734Z,602.9230
2022-09-01T01:05:02.930Z,602.9230
2022-09-01T01:05:14.427Z,602.9230
2022-09-01T01:05:26.705Z,599.6700
2022-09-01T01:05:37.911Z,600.7510
2022-09-01T01:05:49.047Z,600.7510
2022-09-01T01:06:00.209Z,601.8350
2022-09-01T01:06:11.412Z,600.2100
2022-09-01T01:06:22.545Z,602.9230
2022-09-01T01:06:33.667Z,601.8350
2022-09-01T01:06:44.798Z,604.5630
2022-09-01T01:06:55.935Z,602.9230
2022-09-01T01:07:07.096Z,607.3160
2022-09-01T01:07:18.374Z,602.9230
2022-09-01T01:07:29.506Z,607.3160
2022-09-01T01:07:40.696Z,603.4690
2022-09-01T01:07:52.469Z,602.9230
2022-09-01T01:08:03.630Z,604.0160
2022-09-01T01:08:14.754Z,604.5630
2022-09-01T01:08:25.894Z,604.5630
2022-09-01T01:08:37.017Z,607.8700
2022-09-01T01:08:48.214Z,607.8700
2022-09-01T01:08:59.415Z,604.5630
2022-09-01T01:09:10.544Z,605.1120
2022-09-01T01:09:21.823Z,605.1120
2022-09-01T01:09:33.028Z,604.5630
2022-09-01T01:09:44.220Z,605.6610
2022-09-01T01:09:55.408Z,605.6610
2022-09-01T01:10:06.633Z,607.3160
2022-09-01T01:10:17.819Z,607.3160
2022-09-01T01:10:29.017Z,607.8700
2022-09-01T01:10:40.142Z,606.2120
2022-09-01T01:10:51.271Z,607.3160
2022-09-01T01:11:02.409Z,607.8700
2022-09-01T01:11:13.537Z,608.4240
2022-09-01T01:11:24.842Z,606.7640
2022-09-01T01:11:35.976Z,608.4240
2022-09-01T01:11:47.105Z,606.7640
2022-09-01T01:11:58.295Z,607.3160
2022-09-01T01:12:09.495Z,607.8700
2022-09-01T01:12:20.701Z,608.4240
2022-09-01T01:12:31.994Z,607.3160
2022-09-01T01:12:43.115Z,606.2120
2022-09-01T01:12:54.307Z,606.7640
2022-09-01T01:13:05.536Z,607.3160
2022-09-01T01:13:16.697Z,605.6610
2022-09-01T01:13:28.025Z,607.3160
2022-09-01T01:13:39.156Z,608.4240
2022-09-01T01:13:50.297Z,605.6610
2022-09-01T01:14:01.427Z,606.2120
2022-09-01T01:14:12.562Z,607.3160
2022-09-01T01:14:23.686Z,608.9800
2022-09-01T01:14:34.815Z,609.5370
2022-09-01T01:14:46.073Z,607.8700
2022-09-01T01:14:57.187Z,607.8700
2022-09-01T01:15:08.369Z,608.4240
2022-09-01T01:15:19.487Z,607.8700
2022-09-01T01:15:30.756Z,610.0940
2022-09-01T01:15:41.887Z,608.4240
2022-09-01T01:15:53.027Z,609.5370
2022-09-01T01:16:04.160Z,610.6530
2022-09-01T01:16:15.320Z,609.5370
2022-09-01T01:16:26.518Z,610.0940
2022-09-01T01:16:37.735Z,610.6530
2022-09-01T01:16:48.859Z,609.5370
2022-09-01T01:17:00.023Z,610.6530
2022-09-01T01:17:11.146Z,611.2130
2022-09-01T01:17:22.277Z,610.0940
2022-09-01T01:17:33.552Z,610.0940
2022-09-01T01:17:44.687Z,611.7740
2022-09-01T01:17:55.818Z,610.6530
2022-09-01T01:18:06.982Z,611.7740
2022-09-01T01:18:23.511Z,611.2130
2022-09-01T01:18:35.165Z,604.0160
2022-09-01T01:18:46.285Z,606.2120
2022-09-01T01:18:57.414Z,606.2120
2022-09-01T01:19:08.542Z,606.7640
2022-09-01T01:19:19.666Z,608.4240
2022-09-01T01:19:30.795Z,607.3160
2022-09-01T01:19:47.977Z,600.2100
2022-09-01T01:19:59.130Z,600.7510
2022-09-01T01:20:10.255Z,602.9230
2022-09-01T01:20:21.377Z,605.1120
2022-09-01T01:20:32.532Z,605.1120
2022-09-01T01:20:43.656Z,605.6610
2022-09-01T01:20:54.786Z,606.2120
2022-09-01T01:21:05.930Z,608.9800
2022-09-01T01:21:17.061Z,607.8700
2022-09-01T01:21:28.218Z,607.8700
2022-09-01T01:21:39.413Z,608.4240
2022-09-01T01:21:50.694Z,608.9800
2022-09-01T01:22:01.952Z,607.3160
2022-09-01T01:22:13.080Z,608.9800
2022-09-01T01:22:24.208Z,608.4240
2022-09-01T01:22:35.339Z,611.7740
2022-09-01T01:22:46.474Z,610.6530
2022-09-01T01:22:57.602Z,608.9800
2022-09-01T01:23:08.766Z,609.5370
2022-09-01T01:23:19.907Z,610.6530
2022-09-01T01:23:31.094Z,611.7740
2022-09-01T01:23:42.223Z,611.2130
2022-09-01T01:23:53.501Z,612.8980
2022-09-01T01:24:04.697Z,612.3350
2022-09-01T01:24:15.905Z,612.3350
2022-09-01T01:24:27.096Z,611.7740
2022-09-01T01:24:38.288Z,612.8980
2022-09-01T01:24:49.486Z,612.3350
2022-09-01T01:25:00.618Z,612.3350
2022-09-01T01:25:11.750Z,615.1600
2022-09-01T01:25:22.877Z,615.1600
2022-09-01T01:25:34.025Z,613.4620
2022-09-01T01:25:45.164Z,615.7280
2022-09-01T01:25:56.454Z,614.0270
2022-09-01T01:26:07.576Z,613.4620
2022-09-01T01:26:18.709Z,614.0270
2022-09-01T01:26:29.846Z,612.8980
2022-09-01T01:26:40.975Z,612.8980
2022-09-01T01:26:52.115Z,616.2970
2022-09-01T01:27:03.244Z,616.8670
2022-09-01T01:27:14.376Z,615.1600
2022-09-01T01:27:25.507Z,614.0270
2022-09-01T01:27:42.956Z,618.0100
2022-09-01T01:27:53.679Z,608.9800
2022-09-01T01:28:04.954Z,607.8700
2022-09-01T01:28:16.118Z,610.0940
2022-09-01T01:28:27.240Z,610.0940
2022-09-01T01:28:38.377Z,611.7740
2022-09-01T01:28:49.504Z,611.7740
2022-09-01T01:29:00.699Z,613.4620
2022-09-01T01:29:11.885Z,612.8980
2022-09-01T01:29:23.018Z,614.0270
2022-09-01T01:29:34.158Z,613.4620
2022-09-01T01:29:45.286Z,614.0270
2022-09-01T01:29:56.415Z,615.1600
2022-09-01T01:30:09.350Z,612.3350
2022-09-01T01:30:20.694Z,613.4620
2022-09-01T01:30:31.868Z,613.4620
2022-09-01T01:30:43.029Z,612.8980
2022-09-01T01:30:54.253Z,614.0270
2022-09-01T01:31:05.435Z,615.7280
2022-09-01T01:31:16.666Z,615.1600
2022-09-01T01:31:27.780Z,613.4620
2022-09-01T01:31:38.911Z,614.0270
2022-09-01T01:31:50.031Z,612.8980
2022-09-01T01:32:01.179Z,615.1600
2022-09-01T01:32:12.372Z,615.1600
2022-09-01T01:32:23.649Z,617.4380
2022-09-01T01:32:34.786Z,615.1600
2022-09-01T01:32:45.979Z,615.1600
2022-09-01T01:32:57.177Z,615.1600
2022-09-01T01:33:08.404Z,615.1600
2022-09-01T01:33:19.602Z,615.7280
2022-09-01T01:33:32.479Z,612.8980
2022-09-01T01:33:43.617Z,613.4620
2022-09-01T01:33:54.771Z,614.0270
2022-09-01T01:34:05.894Z,614.0270
2022-09-01T01:34:17.034Z,615.1600
2022-09-01T01:34:28.315Z,614.5930
2022-09-01T01:34:39.455Z,614.5930
2022-09-01T01:34:50.583Z,615.7280
2022-09-01T01:35:02.680Z,610.6530
2022-09-01T01:35:13.819Z,614.0270
2022-09-01T01:35:25.015Z,615.7280
2022-09-01T01:35:36.207Z,614.0270
2022-09-01T01:35:47.338Z,615.7280
2022-09-01T01:35:58.475Z,614.0270
2022-09-01T01:36:09.595Z,615.7280
2022-09-01T01:36:20.722Z,614.5930
2022-09-01T01:36:32.048Z,615.1600
2022-09-01T01:36:43.185Z,615.7280
2022-09-01T01:36:54.317Z,615.7280
2022-09-01T01:37:05.496Z,616.2970
2022-09-01T01:37:16.627Z,616.2970
2022-09-01T01:37:27.763Z,614.0270
2022-09-01T01:37:38.902Z,616.8670
2022-09-01T01:37:50.025Z,616.2970
2022-09-01T01:38:01.177Z,615.7280
2022-09-01T01:38:12.432Z,616.8670
2022-09-01T01:38:23.603Z,615.1600
2022-09-01T01:38:34.922Z,615.1600
2022-09-01T01:38:46.054Z,616.2970
2022-09-01T01:38:57.187Z,615.7280
2022-09-01T01:39:08.378Z,615.7280
2022-09-01T01:39:19.571Z,616.2970
2022-09-01T01:39:30.777Z,615.7280
2022-09-01T01:39:41.884Z,616.2970
2022-09-01T01:39:53.009Z,616.2970
2022-09-01T01:40:04.270Z,618.5840
2022-09-01T01:40:15.478Z,618.0100
2022-09-01T01:40:26.756Z,617.4380
2022-09-01T01:40:38.117Z,618.5840
2022-09-01T01:40:49.371Z,617.4380
2022-09-01T01:41:00.478Z,619.1580
2022-09-01T01:41:11.614Z,617.4380
2022-09-01T01:41:22.776Z,617.4380
2022-09-01T01:41:33.996Z,618.5840
2022-09-01T01:41:45.179Z,618.5840
2022-09-01T01:41:56.372Z,618.5840
2022-09-01T01:42:07.498Z,619.1580
2022-09-01T01:42:18.635Z,619.1580
2022-09-01T01:42:29.765Z,619.7330
2022-09-01T01:42:41.032Z,619.1580
2022-09-01T01:42:52.155Z,619.7330
2022-09-01T01:43:03.435Z,618.0100
2022-09-01T01:43:14.557Z,618.5840
2022-09-01T01:43:25.725Z,619.7330
2022-09-01T01:43:36.855Z,617.4380
2022-09-01T01:43:47.986Z,618.0100
2022-09-01T01:43:59.116Z,619.7330
2022-09-01T01:44:10.256Z,618.5840
2022-09-01T01:44:21.385Z,619.1580
2022-09-01T01:44:32.511Z,619.1580
2022-09-01T01:44:43.781Z,620.3100
2022-09-01T01:44:54.945Z,622.6270
2022-09-01T01:45:06.135Z,620.3100
2022-09-01T01:45:17.339Z,619.1580
2022-09-01T01:45:28.463Z,620.8870
2022-09-01T01:45:39.639Z,622.6270
2022-09-01T01:45:50.806Z,620.3100
2022-09-01T01:46:01.993Z,620.8870
2022-09-01T01:46:13.220Z,619.7330
2022-09-01T01:46:24.424Z,620.8870
2022-09-01T01:46:35.560Z,619.7330
2022-09-01T01:46:46.821Z,619.7330
2022-09-01T01:46:57.950Z,619.7330
2022-09-01T01:47:09.087Z,620.3100
2022-09-01T01:47:20.215Z,620.8870
2022-09-01T01:47:31.414Z,620.8870
2022-09-01T01:47:42.534Z,619.7330
2022-09-01T01:47:53.705Z,620.3100
2022-09-01T01:48:04.800Z,620.3100
2022-09-01T01:48:15.934Z,620.8870
2022-09-01T01:48:27.146Z,622.6270
2022-09-01T01:48:38.276Z,619.7330
2022-09-01T01:48:49.544Z,620.8870
2022-09-01T01:49:00.683Z,618.5840
2022-09-01T01:49:11.825Z,619.1580
2022-09-01T01:49:22.971Z,620.3100
2022-09-01T01:49:34.091Z,620.8870
2022-09-01T01:49:45.218Z,620.8870
2022-09-01T01:49:56.378Z,620.8870
2022-09-01T01:50:07.495Z,622.0460
2022-09-01T01:50:18.626Z,620.8870
2022-09-01T01:50:29.753Z,622.0460
2022-09-01T01:50:40.876Z,623.2090
2022-09-01T01:50:52.206Z,620.8870
2022-09-01T01:51:03.337Z,621.4660
2022-09-01T01:51:14.475Z,622.0460
2022-09-01T01:51:25.658Z,620.8870
2022-09-01T01:51:36.855Z,622.6270
2022-09-01T01:51:47.986Z,622.6270
2022-09-01T01:51:59.158Z,622.0460
2022-09-01T01:52:10.249Z,623.2090
2022-09-01T01:52:21.386Z,622.6270
2022-09-01T01:52:38.417Z,614.5930
2022-09-01T01:52:58.568Z,606.2120
2022-09-01T01:53:11.328Z,604.0160
2022-09-01T01:53:22.901Z,605.1120
2022-09-01T01:53:34.035Z,607.3160
2022-09-01T01:53:45.168Z,607.3160
2022-09-01T01:53:56.294Z,610.6530
2022-09-01T01:54:07.406Z,610.6530
2022-09-01T01:54:18.537Z,614.0270
2022-09-01T01:54:29.680Z,611.7740
2022-09-01T01:54:40.858Z,613.4620
2022-09-01T01:54:51.984Z,616.2970
2022-09-01T01:55:05.190Z,615.7280
2022-09-01T01:55:16.863Z,611.7740
2022-09-01T01:55:27.997Z,612.8980
2022-09-01T01:55:39.124Z,613.4620
2022-09-01T01:55:50.298Z,613.4620
2022-09-01T01:56:01.490Z,614.0270
2022-09-01T01:56:12.612Z,616.8670
2022-09-01T01:56:23.736Z,616.2970
2022-09-01T01:56:34.875Z,616.2970
2022-09-01T01:56:46.007Z,617.4380
2022-09-01T01:56:57.175Z,617.4380
2022-09-01T01:57:08.302Z,618.0100
2022-09-01T01:57:19.583Z,618.5840
2022-09-01T01:57:30.778Z,619.1580
2022-09-01T01:57:41.978Z,619.1580
2022-09-01T01:57:53.109Z,618.5840
2022-09-01T01:58:05.340Z,619.1580
2022-09-01T01:58:16.643Z,618.0100
2022-09-01T01:58:27.777Z,618.5840
2022-09-01T01:58:38.962Z,620.8870
2022-09-01T01:58:50.136Z,620.3100
2022-09-01T01:59:01.272Z,621.4660
2022-09-01T01:59:12.394Z,620.3100
2022-09-01T01:59:23.675Z,622.6270
2022-09-01T01:59:34.804Z,620.8870
2022-09-01T01:59:45.936Z,621.4660
2022-09-01T01:59:57.071Z,622.0460
2022-09-01T02:00:08.204Z,622.6270
2022-09-01T02:00:26.073Z,621.4660
2022-09-01T02:00:37.659Z,613.4620
2022-09-01T02:00:48.855Z,615.1600
2022-09-01T02:01:00.124Z,615.1600
2022-09-01T02:01:11.292Z,617.4380
2022-09-01T02:01:22.495Z,617.4380
2022-09-01T02:01:33.862Z,617.4380
2022-09-01T02:01:45.066Z,616.2970
2022-09-01T02:01:56.214Z,619.1580
2022-09-01T02:02:07.397Z,619.7330
2022-09-01T02:02:18.672Z,620.3100
2022-09-01T02:02:29.879Z,619.7330
2022-09-01T02:02:41.053Z,617.4380
2022-09-01T02:02:52.247Z,620.8870
2022-09-01T02:03:03.451Z,618.5840
2022-09-01T02:03:14.588Z,620.8870
2022-09-01T02:03:25.723Z,620.3100
2022-09-01T02:03:37.011Z,619.1580
2022-09-01T02:03:48.161Z,618.5840
2022-09-01T02:04:00.427Z,620.8870
2022-09-01T02:04:11.758Z,619.1580
2022-09-01T02:04:22.934Z,619.7330
2022-09-01T02:04:34.192Z,620.3100
2022-09-01T02:04:45.205Z,620.3100
2022-09-01T02:04:56.335Z,621.4660
2022-09-01T02:05:07.458Z,620.8870
2022-09-01T02:05:18.603Z,620.8870
2022-09-01T02:05:29.732Z,622.0460
2022-09-01T02:05:40.863Z,620.3100
2022-09-01T02:05:52.128Z,621.4660
2022-09-01T02:06:03.270Z,622.0460
2022-09-01T02:06:14.393Z,623.2090
2022-09-01T02:06:25.537Z,623.7920
2022-09-01T02:06:36.698Z,623.2090
2022-09-01T02:06:47.897Z,623.2090
2022-09-01T02:06:59.095Z,623.7920
2022-09-01T02:07:10.297Z,623.7920
2022-09-01T02:07:21.499Z,623.7920
2022-09-01T02:07:33.176Z,626.1340
2022-09-01T02:07:45.064Z,623.2090
2022-09-01T02:07:56.341Z,624.9610
2022-09-01T02:08:07.462Z,624.3760
2022-09-01T02:08:18.748Z,624.3760
2022-09-01T02:08:29.976Z,623.7920
2022-09-01T02:08:41.186Z,623.2090
2022-09-01T02:08:52.334Z,625.5470
2022-09-01T02:09:03.474Z,626.7230
2022-09-01T02:09:14.604Z,624.9610
2022-09-01T02:09:25.734Z,626.1340
2022-09-01T02:09:36.864Z,627.9030
2022-09-01T02:09:48.073Z,626.1340
2022-09-01T02:09:59.396Z,626.7230
2022-09-01T02:10:10.524Z,625.5470
2022-09-01T02:10:21.643Z,627.9030
2022-09-01T02:10:32.765Z,627.9030
2022-09-01T02:10:43.896Z,625.5470
2022-09-01T02:10:55.051Z,627.9030
2022-09-01T02:11:06.162Z,627.9030
2022-09-01T02:11:17.351Z,627.9030
2022-09-01T02:11:28.534Z,627.3120
2022-09-01T02:11:39.664Z,627.9030
2022-09-01T02:11:50.794Z,626.7230
2022-09-01T02:12:02.072Z,627.9030
2022-09-01T02:12:15.598Z,627.9030
2022-09-01T02:12:27.284Z,623.2090
2022-09-01T02:12:38.420Z,624.9610
2022-09-01T02:12:49.542Z,625.5470
2022-09-01T02:13:00.678Z,625.5470
2022-09-01T02:13:11.801Z,626.7230